Nearby METAR Reports

 

KSJC - San Jose, California, USA
Distance from station: NE 14km
Updated: 19/06/2021 18:53
Clear
Clear
 Wind from NW
Wind: NW 19 km/h
Temperature: 23°C
Dew Point: 12°C
Humidity: 50%
Barometer: 1006.4 hPa
Clouds: Clear
Visibility: 16 km
2021/06/20 01:53 KSJC 200153Z 32010KT 10SM CLR 23/12 A2972 RMK AO2 SLP062 T02280122
KNUQ - Moffett Nas/Mtn, California, USA
Distance from station: N 14km
Updated: 19/06/2021 19:35
Haze, Clear
Haze, Clear
 Wind from NW
Wind: NW 17 km/h
Temperature: 19°C
Dew Point: 14°C
Humidity: 73%
Barometer: 1007.1 hPa
Summary: Haze
Clouds: Clear
Visibility: 10 km
2021/06/20 02:35 KNUQ 200235Z AUTO 32009KT 6SM HZ CLR 19/14 A2974 RMK AO2
 
KPAO - Palo Alto, California, USA
Distance from station: NNW 23km
Updated: 19/06/2021 19:47
Clear
Clear
 Wind from NNW
Wind: NNW 20 km/h
Temperature: 18°C
Dew Point: 14°C
Humidity: 78%
Barometer: 1007.1 hPa
Clouds: Clear
Visibility: 16 km
2021/06/20 02:47 KPAO 200247Z 34011KT 10SM SKC 18/14 A2974
KRHV - San Jose/Reid, California, USA
Distance from station: ENE 19km
Updated: 19/06/2021 19:47
Clear
Clear
 Wind from WNW
Wind: WNW 13 km/h
Temperature: 24°C
Dew Point: 13°C
Humidity: 50%
Barometer: 1006.8 hPa
Clouds: Clear
Visibility: 16 km
2021/06/20 02:47 KRHV 200247Z 29007KT 10SM SKC 24/13 A2973
 
KOAK - Oakland, California, USA
Distance from station: NNW 50km
Updated: 19/06/2021 18:53
Few Clouds
Few Clouds
 Wind from NW
Wind: NW 22 km/h
Temperature: 17°C
Dew Point: 12°C
Humidity: 73%
Barometer: 1007.1 hPa
Clouds: Few Clouds
Visibility: 14 km
Cloud details: Few Clouds 305 m
Few Clouds 7620 m
2021/06/20 01:53 KOAK 200153Z 31012KT 9SM FEW010 FEW250 17/12 A2974 RMK AO2 SLP070 T01720117
KSQL - San Carlos Airpo, California, USA
Distance from station: NW 34km
Updated: 19/06/2021 19:47
Clear
Clear
 Wind from N
Wind: N 17 km/h
Temperature: 20°C
Dew Point: 14°C
Humidity: 69%
Barometer: 1007.1 hPa
Clouds: Clear
Visibility: 16 km
2021/06/20 02:47 KSQL 200247Z 01009KT 10SM SKC 20/14 A2974
 
KSFO - San Francisco, California, USA
Distance from station: NW 49km
Updated: 19/06/2021 18:56
Few Clouds
Few Clouds
 Wind from NW
Wind: NW 24 km/h
Temperature: 19°C
Dew Point: 12°C
Humidity: 64%
Barometer: 1006.4 hPa
Clouds: Few Clouds
Visibility: 16 km
Cloud details: Few Clouds 152 m
2021/06/20 01:56 KSFO 200156Z 31013KT 10SM FEW005 19/12 A2972 RMK AO2 SLP063 T01940117
KE16 - San Martin, California, USA
Distance from station: ESE 43km
Updated: 19/06/2021 19:35
Clear
Clear
 Wind from SE
Wind: SE 22 km/h
Temperature: 22°C
Dew Point: 10°C
Humidity: 47%
Barometer: 1007.8 hPa
Clouds: Clear
Visibility: 16 km
2021/06/20 02:35 KE16 200235Z AUTO 14012KT 10SM CLR 22/10 A2976 RMK AO2 PWINO PNO
 
KWVI - Watsonville, California, USA
Distance from station: SSE 44km
Updated: 19/06/2021 18:53
Clear
Clear
 Wind from SW
Wind: SW 11 km/h
Temperature: 16°C
Dew Point: 12°C
Humidity: 77%
Barometer: 1008.5 hPa
Clouds: Clear
Visibility: 14 km
2021/06/20 01:53 KWVI 200153Z AUTO 23006KT 9SM CLR 16/12 A2978 RMK AO2 SLP084 T01610122
KHAF - Half Moon Bay, California, USA
Distance from station: WNW 50km
Updated: 19/06/2021 19:35
Mist, Overcast
Mist, Overcast
 Wind from S
Wind: S 15 km/h
Temperature: 13°C
Dew Point: 12°C
Humidity: 94%
Barometer: 1008.5 hPa
Summary: Mist
Clouds: Overcast
Visibility: 5 km
Cloud details: Overcast 183 m
2021/06/20 02:35 KHAF 200235Z AUTO 18008KT 3SM BR OVC006 13/12 A2978 RMK AO2
 
KHWD - Hayward, California, USA
Distance from station: N 44km
Updated: 19/06/2021 18:54
Clear
Clear
 Wind from NW
Wind: NW 20 km/h
Temperature: 20°C
Dew Point: 12°C
Humidity: 60%
Barometer: 1006.4 hPa
Clouds: Clear
Visibility: 16 km
2021/06/20 01:54 KHWD 200154Z 31011KT 10SM CLR 20/12 A2972 RMK AO2 SLP074 T02000117
KLVK - Livermore, California, USA
Distance from station: NNE 51km
Updated: 19/06/2021 18:53
Clear
Clear
 Wind from WNW
Wind: WNW 20 km/h
Temperature: 29°C
Dew Point: 9°C
Humidity: 29%
Barometer: 1005.1 hPa
Clouds: Clear
Visibility: 16 km
2021/06/20 01:53 KLVK 200153Z 29011KT 10SM CLR 29/09 A2968 RMK AO2 SLP045 T02940089